createdAt,value
2023-02-27T00:00:02.186Z,82.1
2023-02-27T00:15:02.897Z,81.9
2023-02-27T00:30:02.062Z,83.1
2023-02-27T00:45:02.484Z,83.4
2023-02-27T01:00:02.930Z,83.6
2023-02-27T01:15:02.372Z,83.6
2023-02-27T01:30:02.878Z,85.7
2023-02-27T01:45:02.233Z,86.3
2023-02-27T02:00:02.889Z,87.5
2023-02-27T02:15:02.130Z,88.2
2023-02-27T02:30:02.588Z,88.8
2023-02-27T02:45:03.022Z,88.9
2023-02-27T03:00:02.432Z,88.8
2023-02-27T03:15:02.914Z,88.4
2023-02-27T03:30:02.327Z,88.0
2023-02-27T03:45:02.884Z,88.5
2023-02-27T04:00:02.212Z,88.6
2023-02-27T04:15:02.904Z,88.3
2023-02-27T04:30:02.102Z,88.1
2023-02-27T04:45:02.536Z,88.1
2023-02-27T05:00:02.988Z,88.9
2023-02-27T05:15:02.404Z,89.3
2023-02-27T05:30:02.933Z,89.7
2023-02-27T05:45:02.304Z,89.7
2023-02-27T06:00:02.936Z,89.3
2023-02-27T06:15:02.185Z,89.1
2023-02-27T06:30:02.611Z,89.2
2023-02-27T06:45:03.047Z,89.1
2023-02-27T07:00:02.472Z,89.0
2023-02-27T07:15:02.948Z,88.9
2023-02-27T07:30:02.327Z,88.9
2023-02-27T07:45:02.950Z,89.0
2023-02-27T08:00:02.211Z,89.1
2023-02-27T08:15:02.818Z,89.4
2023-02-27T08:30:02.119Z,89.4
2023-02-27T08:45:02.532Z,88.5
2023-02-27T09:00:03.063Z,89.2
2023-02-27T09:15:02.391Z,86.9
2023-02-27T09:30:02.962Z,85.2
2023-02-27T09:45:05.481Z,78.9
2023-02-27T10:15:02.176Z,67.8
2023-02-27T10:30:02.622Z,62.8
2023-02-27T10:45:03.038Z,58.0
2023-02-27T11:00:02.487Z,54.0
2023-02-27T11:15:02.974Z,53.5
2023-02-27T11:30:02.385Z,50.7
2023-02-27T11:45:02.991Z,54.6
2023-02-27T12:15:02.789Z,52.9
2023-02-27T12:30:02.176Z,56.5
2023-02-27T12:45:02.602Z,57.6
2023-02-27T13:00:03.030Z,61.2
2023-02-27T13:15:02.480Z,58.0
2023-02-27T13:30:03.003Z,54.9
2023-02-27T13:45:02.354Z,53.9
2023-02-27T14:00:03.017Z,56.0
2023-02-27T14:15:02.198Z,53.0
2023-02-27T14:30:02.613Z,54.9
2023-02-27T14:45:03.084Z,56.4
2023-02-27T15:00:02.507Z,57.1
2023-02-27T15:15:03.084Z,58.5
2023-02-27T15:30:02.441Z,57.0
2023-02-27T15:45:03.028Z,59.0
2023-02-27T16:00:02.250Z,59.1
2023-02-27T16:15:02.678Z,59.3
2023-02-27T16:30:03.206Z,60.4
2023-02-27T16:45:02.533Z,61.2
2023-02-27T17:00:03.053Z,63.1
2023-02-27T17:15:02.430Z,63.2
2023-02-27T17:30:03.072Z,65.2
2023-02-27T17:45:02.343Z,65.9
2023-02-27T18:00:02.769Z,66.1
2023-02-27T18:15:03.173Z,66.1
2023-02-27T18:30:02.624Z,67.5
2023-02-27T18:45:03.088Z,68.3
2023-02-27T19:00:02.503Z,70.7
2023-02-27T19:15:03.072Z,72.8
2023-02-27T19:30:02.371Z,73.4
2023-02-27T19:45:02.810Z,74.0
2023-02-27T20:00:03.242Z,76.0
2023-02-27T20:15:02.662Z,76.5
2023-02-27T20:30:03.147Z,76.9
2023-02-27T20:45:02.530Z,77.7
2023-02-27T21:00:03.098Z,79.9
2023-02-27T21:15:02.409Z,79.6
2023-02-27T21:30:03.018Z,79.6
2023-02-27T21:45:02.284Z,80.9
2023-02-27T22:00:02.715Z,81.0
2023-02-27T22:15:03.194Z,81.8
2023-02-27T22:30:02.615Z,82.2
2023-02-27T22:45:03.115Z,83.3
2023-02-27T23:00:02.503Z,83.9
2023-02-27T23:15:03.143Z,84.2
2023-02-27T23:30:02.376Z,84.4
2023-02-27T23:45:02.846Z,84.6
